Flight Track Log - Related Links

Times and Time Zones

All times are in EST time to prevent confusion due to time zone crossing. See the CLH2397 flight status page for this flight to view local times or setup timezone preferences in your user account.

Time Position Orientation Groundspeed Altitude Reporting Facility
EST Latitude Longitude Course Direction KTS MPH feet Rate Location/Type
Wed 10:48:00 AM 47.6822 7.9964 73° East  Level Estimated
Wed 10:49:00 AM 47.7051 8.1133 74° East  Level Estimated
Wed 10:50:00 AM 47.7278 8.2303 74° East  Level Estimated
Wed 10:51:00 AM 47.7504 8.3474 74° East  Level Estimated
Wed 10:52:00 AM 47.7729 8.4646 74° East  Level Estimated
Wed 10:53:00 AM 47.7953 8.5819 74° East  Level Estimated
Wed 10:54:00 AM 47.8176 8.6993 74° East  Level Estimated
Wed 10:55:00 AM 47.8397 8.8167 74° East  Level Estimated
Wed 10:56:00 AM 47.8617 8.9343 74° East  Level Estimated
Wed 10:57:00 AM 47.8836 9.0520 74° East  Level Estimated
Wed 10:58:00 AM 47.9054 9.1698 75° East  Level Estimated
Wed 10:59:00 AM 47.9271 9.2877 75° East  Level Estimated
Wed 11:00:00 AM 47.9486 9.4057 75° East  Level Estimated
Wed 11:01:00 AM 47.9700 9.5238 75° East  Level Estimated
Wed 11:02:00 AM 47.9913 9.6420 75° East  Level Estimated
Wed 11:03:00 AM 48.0125 9.7602 75° East  Level Estimated
Wed 11:04:00 AM 48.0335 9.8786 75° East  Level Estimated
Wed 11:05:00 AM 48.0545 9.9971 75° East  Level Estimated
Wed 11:06:00 AM 48.0753 10.1157 75° East  Level Estimated
Wed 11:07:00 AM 48.0960 10.2343 75° East  Level Estimated
Wed 11:08:00 AM 48.1165 10.3531 75° East  Level Estimated
Wed 11:09:00 AM 48.1370 10.4720 76° East  Level Estimated
Wed 11:10:00 AM 48.1662 10.6433 76° East  Level Estimated
Wed 11:11:00 AM 48.1951 10.8148 76° East  Level Estimated
Wed 11:12:00 AM 48.2239 10.9865 76° East  Level Estimated
Wed 11:13:00 AM 48.2523 11.1584 76° East  Level Estimated
Wed 11:14:00 AM 48.2805 11.3305 76° East  Level Estimated
Wed 11:15:00 AM 48.3085 11.5028 76° East  Level Estimated
Wed 11:16:00 AM 48.3361 11.6752 76° East  Level Estimated
Wed 11:17:00 AM 48.3538 11.7861 76° East  Level Estimated
Wed 11:18:00 AM 48.3538 11.7861 318° Northwest  Level Estimated
Wed 11:19:00 AM 48.3538 11.7861 318° Northwest  Level Estimated
Wed 11:20:00 AM 48.3538 11.7861 318° Northwest  Level Estimated
Wed 11:21:00 AM 48.3538 11.7861 318° Northwest  Level Estimated
Wed 11:22:00 AM 48.3538 11.7861 318° Northwest  Level Estimated
Wed 11:23:00 AM 48.3538 11.7861 318° Northwest  Level Estimated
Wed 11:24:00 AM 48.3538 11.7861 318° Northwest  Level Estimated
Wed 11:25:00 AM 48.3538 11.7861 318° Northwest  Level Estimated

Login

Don't have an account? Register now (free) for customized features, flight alerts, and more!